Portada
METAR-TAF:

METAR-TAF

Aeropuertos :

Aeropuerto Internacional de Yaoundé Nsimalen

Yaundé, Camerún

latitud: 03-50N, longitud: 011-31E, altitud: 751 m

Observación

El informe se hizo hace 38 minutos, a las 05:00 UTC
Viento 2 kt del suroeste
Temperatura 20°C
Humedad 100%
Presión 1019 hPa
Visibilidad 10 km o más
Cielo nuboso a una altura de 600 ft

METAR: FKYS 090500Z 22002KT 9999 BKN006 20/20 Q1019 NOSIG

Hora: 06:38 (05:38 UTC)

Pronóstico

El informe se hizo hace 6 horas y 38 minutos, a las 23:00 UTC
Pronóstico válido del 09 a las 00 UTC al 09 a las 24 UTC
Viento 5 kt del oeste
Visibilidad 10 km o más
Cielo nuboso a una altura de 600 ft
Evolucionando progresivamente
del 09 a las 08 UTC al 09 a las 12 UTC
Cielo nuboso a una altura de 1600 ft
Evolucionando progresivamente
del 09 a las 20 UTC al 09 a las 22 UTC
Cielo nuboso a una altura de 600 ft

TAF: FKYS 082300Z 0900/0924 26005KT 9999 BKN006 BECMG 0908/0912 BKN016 BECMG 0920/0922 BKN006

Observaciones y pronósticos meteorológicos de más de 4000 aeropuertos (mensajes METAR y TAF).

Los puntos amarillos y rojos representan las estaciones disponibles.

Ponga el ratón en el punto deseado para ver el nombre de la estación.

Haga clic para ver las observaciones y los pronósticos meteorológicos.

Para cambiar el mapa : haga clic en los botones verdes con una cruz de color negro para hacer un zoom, en el botón verde con un guión para alejar o en las flechas verdes para mapas adyacentes.


METAR-TAF: